sensor_id;sensor_type;location;lat;lon;timestamp;temperature;humidity
31074;DHT22;17730;53.552;9.940;2023-01-01T00:02:05;15.60;1.00
31074;DHT22;17730;53.552;9.940;2023-01-01T00:04:32;15.60;1.00
31074;DHT22;17730;53.552;9.940;2023-01-01T00:06:59;15.60;1.00
31074;DHT22;17730;53.552;9.940;2023-01-01T00:09:25;15.60;1.00
31074;DHT22;17730;53.552;9.940;2023-01-01T00:12:26;15.60;1.00
31074;DHT22;17730;53.552;9.940;2023-01-01T00:14:51;15.60;1.00
31074;DHT22;17730;53.552;9.940;2023-01-01T00:17:17;15.60;1.00
31074;DHT22;17730;53.552;9.940;2023-01-01T00:19:42;15.60;1.00
31074;DHT22;17730;53.552;9.940;2023-01-01T00:22:08;15.60;1.00
31074;DHT22;17730;53.552;9.940;2023-01-01T00:24:33;15.60;1.00
31074;DHT22;17730;53.552;9.940;2023-01-01T00:26:59;15.60;1.00
31074;DHT22;17730;53.552;9.940;2023-01-01T00:29:24;15.60;1.00
31074;DHT22;17730;53.552;9.940;2023-01-01T00:31:50;15.60;1.00
31074;DHT22;17730;53.552;9.940;2023-01-01T00:34:15;15.60;1.00
31074;DHT22;17730;53.552;9.940;2023-01-01T00:36:41;15.60;1.00
31074;DHT22;17730;53.552;9.940;2023-01-01T00:39:07;15.60;1.00
31074;DHT22;17730;53.552;9.940;2023-01-01T00:41:32;15.60;1.00
31074;DHT22;17730;53.552;9.940;2023-01-01T00:43:58;15.60;1.00
31074;DHT22;17730;53.552;9.940;2023-01-01T00:46:23;15.60;1.00
31074;DHT22;17730;53.552;9.940;2023-01-01T00:48:49;15.60;1.00
31074;DHT22;17730;53.552;9.940;2023-01-01T00:51:14;15.70;1.00
31074;DHT22;17730;53.552;9.940;2023-01-01T00:53:40;15.60;1.00
31074;DHT22;17730;53.552;9.940;2023-01-01T00:56:05;15.60;1.00
31074;DHT22;17730;53.552;9.940;2023-01-01T00:58:31;15.70;1.00
31074;DHT22;17730;53.552;9.940;2023-01-01T01:00:57;15.70;1.00
31074;DHT22;17730;53.552;9.940;2023-01-01T01:03:23;15.70;1.00
31074;DHT22;17730;53.552;9.940;2023-01-01T01:08:20;15.60;1.00
31074;DHT22;17730;53.552;9.940;2023-01-01T01:10:46;15.60;1.00
31074;DHT22;17730;53.552;9.940;2023-01-01T01:13:11;15.60;1.00
31074;DHT22;17730;53.552;9.940;2023-01-01T01:15:37;15.60;1.00
31074;DHT22;17730;53.552;9.940;2023-01-01T01:18:03;15.60;1.00
31074;DHT22;17730;53.552;9.940;2023-01-01T01:20:28;15.60;1.00
31074;DHT22;17730;53.552;9.940;2023-01-01T01:22:54;15.60;1.00
31074;DHT22;17730;53.552;9.940;2023-01-01T01:25:20;15.60;1.00
31074;DHT22;17730;53.552;9.940;2023-01-01T01:27:45;15.60;1.00
31074;DHT22;17730;53.552;9.940;2023-01-01T01:30:11;15.60;1.00
31074;DHT22;17730;53.552;9.940;2023-01-01T01:32:37;15.60;1.00
31074;DHT22;17730;53.552;9.940;2023-01-01T01:35:03;15.60;1.00
31074;DHT22;17730;53.552;9.940;2023-01-01T01:37:28;15.60;1.00
31074;DHT22;17730;53.552;9.940;2023-01-01T01:39:54;15.60;1.00
31074;DHT22;17730;53.552;9.940;2023-01-01T01:42:19;15.60;1.00
31074;DHT22;17730;53.552;9.940;2023-01-01T01:47:56;15.60;1.00
31074;DHT22;17730;53.552;9.940;2023-01-01T01:50:33;15.60;1.00
31074;DHT22;17730;53.552;9.940;2023-01-01T01:53:12;15.60;1.00
31074;DHT22;17730;53.552;9.940;2023-01-01T01:55:44;15.60;1.00
31074;DHT22;17730;53.552;9.940;2023-01-01T01:58:13;15.60;1.00
31074;DHT22;17730;53.552;9.940;2023-01-01T02:00:39;15.60;1.00
31074;DHT22;17730;53.552;9.940;2023-01-01T02:05:56;15.60;1.00
31074;DHT22;17730;53.552;9.940;2023-01-01T02:08:23;15.60;1.00
31074;DHT22;17730;53.552;9.940;2023-01-01T02:10:54;15.60;1.00
31074;DHT22;17730;53.552;9.940;2023-01-01T02:13:20;15.60;1.00
31074;DHT22;17730;53.552;9.940;2023-01-01T02:16:10;15.70;1.00
31074;DHT22;17730;53.552;9.940;2023-01-01T02:19:16;15.70;1.00
31074;DHT22;17730;53.552;9.940;2023-01-01T02:24:19;15.70;1.00
31074;DHT22;17730;53.552;9.940;2023-01-01T02:27:00;15.70;1.00
31074;DHT22;17730;53.552;9.940;2023-01-01T02:29:47;15.70;1.00
31074;DHT22;17730;53.552;9.940;2023-01-01T02:32:24;15.60;1.00
31074;DHT22;17730;53.552;9.940;2023-01-01T02:35:04;15.60;1.00
31074;DHT22;17730;53.552;9.940;2023-01-01T02:37:53;15.60;1.00
31074;DHT22;17730;53.552;9.940;2023-01-01T02:40:22;15.60;1.00
31074;DHT22;17730;53.552;9.940;2023-01-01T02:42:48;15.60;1.00
31074;DHT22;17730;53.552;9.940;2023-01-01T02:45:14;15.60;1.00
31074;DHT22;17730;53.552;9.940;2023-01-01T02:47:40;15.60;1.00
31074;DHT22;17730;53.552;9.940;2023-01-01T02:50:18;15.60;1.00
31074;DHT22;17730;53.552;9.940;2023-01-01T02:52:48;15.60;1.00
31074;DHT22;17730;53.552;9.940;2023-01-01T03:01:11;15.50;1.00
31074;DHT22;17730;53.552;9.940;2023-01-01T03:04:13;15.60;1.00
31074;DHT22;17730;53.552;9.940;2023-01-01T03:06:57;15.60;1.00
31074;DHT22;17730;53.552;9.940;2023-01-01T03:09:36;15.50;9.20
31074;DHT22;17730;53.552;9.940;2023-01-01T03:14:55;15.40;39.70
31074;DHT22;17730;53.552;9.940;2023-01-01T03:19:52;15.30;72.50
31074;DHT22;17730;53.552;9.940;2023-01-01T03:22:24;15.30;69.70
31074;DHT22;17730;53.552;9.940;2023-01-01T03:25:01;15.20;84.90
31074;DHT22;17730;53.552;9.940;2023-01-01T03:27:40;15.20;92.80
31074;DHT22;17730;53.552;9.940;2023-01-01T03:30:09;15.20;95.10
31074;DHT22;17730;53.552;9.940;2023-01-01T03:32:51;15.10;99.90
31074;DHT22;17730;53.552;9.940;2023-01-01T03:35:46;15.10;99.90
31074;DHT22;17730;53.552;9.940;2023-01-01T03:38:20;15.10;99.90
31074;DHT22;17730;53.552;9.940;2023-01-01T03:40:49;15.00;99.90
31074;DHT22;17730;53.552;9.940;2023-01-01T03:43:28;15.00;99.90
31074;DHT22;17730;53.552;9.940;2023-01-01T03:45:58;15.00;99.90
31074;DHT22;17730;53.552;9.940;2023-01-01T03:48:25;15.00;99.90
31074;DHT22;17730;53.552;9.940;2023-01-01T03:53:50;15.00;99.90
31074;DHT22;17730;53.552;9.940;2023-01-01T03:56:47;15.00;99.90
31074;DHT22;17730;53.552;9.940;2023-01-01T03:59:37;15.00;99.90
31074;DHT22;17730;53.552;9.940;2023-01-01T04:02:06;15.00;99.90
31074;DHT22;17730;53.552;9.940;2023-01-01T04:04:33;15.00;99.90
31074;DHT22;17730;53.552;9.940;2023-01-01T04:06:59;15.00;99.90
31074;DHT22;17730;53.552;9.940;2023-01-01T04:09:30;15.10;96.40
31074;DHT22;17730;53.552;9.940;2023-01-01T04:11:58;15.00;95.70
31074;DHT22;17730;53.552;9.940;2023-01-01T04:14:36;15.00;99.40
31074;DHT22;17730;53.552;9.940;2023-01-01T04:17:04;15.00;99.90
31074;DHT22;17730;53.552;9.940;2023-01-01T04:19:30;14.90;99.90
31074;DHT22;17730;53.552;9.940;2023-01-01T04:21:56;14.90;99.90
31074;DHT22;17730;53.552;9.940;2023-01-01T04:24:22;15.00;99.90
31074;DHT22;17730;53.552;9.940;2023-01-01T04:26:51;14.90;99.90
31074;DHT22;17730;53.552;9.940;2023-01-01T04:29:17;14.90;99.90
31074;DHT22;17730;53.552;9.940;2023-01-01T04:31:43;15.00;99.90
31074;DHT22;17730;53.552;9.940;2023-01-01T04:34:08;15.00;99.90
31074;DHT22;17730;53.552;9.940;2023-01-01T04:36:34;14.90;99.90
31074;DHT22;17730;53.552;9.940;2023-01-01T04:39:01;14.90;99.90
31074;DHT22;17730;53.552;9.940;2023-01-01T04:41:26;15.00;99.90
31074;DHT22;17730;53.552;9.940;2023-01-01T04:43:52;14.90;99.90
31074;DHT22;17730;53.552;9.940;2023-01-01T04:46:19;15.00;98.80
31074;DHT22;17730;53.552;9.940;2023-01-01T04:48:45;14.90;98.20
31074;DHT22;17730;53.552;9.940;2023-01-01T04:51:12;15.00;95.50
31074;DHT22;17730;53.552;9.940;2023-01-01T04:53:38;15.00;93.30
31074;DHT22;17730;53.552;9.940;2023-01-01T04:58:31;15.00;91.20
31074;DHT22;17730;53.552;9.940;2023-01-01T05:00:57;15.00;85.80
31074;DHT22;17730;53.552;9.940;2023-01-01T05:03:23;15.00;79.90
31074;DHT22;17730;53.552;9.940;2023-01-01T05:05:59;15.00;67.80
31074;DHT22;17730;53.552;9.940;2023-01-01T05:08:26;15.10;61.50
31074;DHT22;17730;53.552;9.940;2023-01-01T05:10:51;15.00;47.30
31074;DHT22;17730;53.552;9.940;2023-01-01T05:13:17;15.00;35.70
31074;DHT22;17730;53.552;9.940;2023-01-01T05:15:43;15.10;25.10
31074;DHT22;17730;53.552;9.940;2023-01-01T05:18:08;15.00;28.90
31074;DHT22;17730;53.552;9.940;2023-01-01T05:20:34;15.00;22.30
31074;DHT22;17730;53.552;9.940;2023-01-01T05:22:59;15.10;19.00
31074;DHT22;17730;53.552;9.940;2023-01-01T05:25:25;15.10;11.40
31074;DHT22;17730;53.552;9.940;2023-01-01T05:27:51;15.10;1.90
31074;DHT22;17730;53.552;9.940;2023-01-01T05:30:17;15.10;2.70
31074;DHT22;17730;53.552;9.940;2023-01-01T05:32:42;15.10;1.00
31074;DHT22;17730;53.552;9.940;2023-01-01T05:35:08;15.10;1.00
31074;DHT22;17730;53.552;9.940;2023-01-01T05:37:33;15.10;1.00
31074;DHT22;17730;53.552;9.940;2023-01-01T05:39:59;15.10;1.00
31074;DHT22;17730;53.552;9.940;2023-01-01T05:42:25;15.20;1.00
31074;DHT22;17730;53.552;9.940;2023-01-01T05:44:50;15.20;1.00
31074;DHT22;17730;53.552;9.940;2023-01-01T05:47:16;15.20;1.00
31074;DHT22;17730;53.552;9.940;2023-01-01T05:49:43;15.20;1.00
31074;DHT22;17730;53.552;9.940;2023-01-01T05:52:08;15.20;1.00
31074;DHT22;17730;53.552;9.940;2023-01-01T05:54:34;15.20;1.00
31074;DHT22;17730;53.552;9.940;2023-01-01T05:56:59;15.30;1.00
31074;DHT22;17730;53.552;9.940;2023-01-01T05:59:25;15.30;1.00
31074;DHT22;17730;53.552;9.940;2023-01-01T06:01:50;15.30;99.90
31074;DHT22;17730;53.552;9.940;2023-01-01T06:04:16;15.30;99.90
31074;DHT22;17730;53.552;9.940;2023-01-01T06:06:41;15.30;1.00
31074;DHT22;17730;53.552;9.940;2023-01-01T06:09:09;15.30;99.90
31074;DHT22;17730;53.552;9.940;2023-01-01T06:11:35;15.30;99.90
31074;DHT22;17730;53.552;9.940;2023-01-01T06:14:01;15.30;99.90
31074;DHT22;17730;53.552;9.940;2023-01-01T06:16:28;15.30;99.90
31074;DHT22;17730;53.552;9.940;2023-01-01T06:18:54;15.30;99.90
31074;DHT22;17730;53.552;9.940;2023-01-01T06:21:22;15.30;99.90
31074;DHT22;17730;53.552;9.940;2023-01-01T06:23:48;15.30;99.90
31074;DHT22;17730;53.552;9.940;2023-01-01T06:28:41;15.30;99.90
31074;DHT22;17730;53.552;9.940;2023-01-01T06:31:09;15.30;99.90
31074;DHT22;17730;53.552;9.940;2023-01-01T06:33:35;15.20;99.90
31074;DHT22;17730;53.552;9.940;2023-01-01T06:36:04;15.30;99.90
31074;DHT22;17730;53.552;9.940;2023-01-01T06:38:34;15.30;99.90
31074;DHT22;17730;53.552;9.940;2023-01-01T06:41:06;15.30;99.90
31074;DHT22;17730;53.552;9.940;2023-01-01T06:43:33;15.30;99.90
31074;DHT22;17730;53.552;9.940;2023-01-01T06:48:40;15.20;99.90
31074;DHT22;17730;53.552;9.940;2023-01-01T06:51:14;15.20;99.90
31074;DHT22;17730;53.552;9.940;2023-01-01T06:53:40;15.20;99.90
31074;DHT22;17730;53.552;9.940;2023-01-01T06:56:06;15.20;99.90
31074;DHT22;17730;53.552;9.940;2023-01-01T06:58:32;15.20;99.90
31074;DHT22;17730;53.552;9.940;2023-01-01T07:01:18;15.10;99.90
31074;DHT22;17730;53.552;9.940;2023-01-01T07:03:48;15.10;99.90
31074;DHT22;17730;53.552;9.940;2023-01-01T07:06:14;15.10;99.90
31074;DHT22;17730;53.552;9.940;2023-01-01T07:08:40;15.10;99.90
31074;DHT22;17730;53.552;9.940;2023-01-01T07:11:05;15.00;99.90
31074;DHT22;17730;53.552;9.940;2023-01-01T07:13:31;15.00;99.90
31074;DHT22;17730;53.552;9.940;2023-01-01T07:15:56;15.00;99.90
31074;DHT22;17730;53.552;9.940;2023-01-01T07:18:23;14.90;99.90
31074;DHT22;17730;53.552;9.940;2023-01-01T07:20:58;14.90;99.90
31074;DHT22;17730;53.552;9.940;2023-01-01T07:23:25;14.90;99.90
31074;DHT22;17730;53.552;9.940;2023-01-01T07:25:51;14.90;99.90
31074;DHT22;17730;53.552;9.940;2023-01-01T07:28:18;14.80;99.90
31074;DHT22;17730;53.552;9.940;2023-01-01T07:30:43;14.80;99.90
31074;DHT22;17730;53.552;9.940;2023-01-01T07:33:16;14.80;99.90
31074;DHT22;17730;53.552;9.940;2023-01-01T07:35:42;14.80;99.90
31074;DHT22;17730;53.552;9.940;2023-01-01T07:38:11;14.70;99.90
31074;DHT22;17730;53.552;9.940;2023-01-01T07:40:37;14.80;99.90
31074;DHT22;17730;53.552;9.940;2023-01-01T07:43:03;14.80;99.90
31074;DHT22;17730;53.552;9.940;2023-01-01T07:45:29;14.70;99.90
31074;DHT22;17730;53.552;9.940;2023-01-01T07:47:56;14.70;99.90
31074;DHT22;17730;53.552;9.940;2023-01-01T07:50:24;14.80;99.90
31074;DHT22;17730;53.552;9.940;2023-01-01T07:52:50;14.70;99.90
31074;DHT22;17730;53.552;9.940;2023-01-01T07:55:18;14.70;99.90
31074;DHT22;17730;53.552;9.940;2023-01-01T07:57:44;14.70;99.90
31074;DHT22;17730;53.552;9.940;2023-01-01T08:00:12;14.70;99.90
31074;DHT22;17730;53.552;9.940;2023-01-01T08:02:38;14.80;99.90
31074;DHT22;17730;53.552;9.940;2023-01-01T08:05:04;14.70;99.90
31074;DHT22;17730;53.552;9.940;2023-01-01T08:07:30;14.70;99.90
31074;DHT22;17730;53.552;9.940;2023-01-01T08:09:56;14.70;99.90
31074;DHT22;17730;53.552;9.940;2023-01-01T08:12:21;14.70;99.90
31074;DHT22;17730;53.552;9.940;2023-01-01T08:14:47;14.70;99.90
31074;DHT22;17730;53.552;9.940;2023-01-01T08:17:12;14.70;99.90
31074;DHT22;17730;53.552;9.940;2023-01-01T08:19:38;14.70;99.90
31074;DHT22;17730;53.552;9.940;2023-01-01T08:22:03;14.70;99.90
31074;DHT22;17730;53.552;9.940;2023-01-01T08:24:29;14.60;99.90
31074;DHT22;17730;53.552;9.940;2023-01-01T08:26:55;14.60;99.90
31074;DHT22;17730;53.552;9.940;2023-01-01T08:29:20;14.60;99.90
31074;DHT22;17730;53.552;9.940;2023-01-01T08:31:46;14.60;99.90
31074;DHT22;17730;53.552;9.940;2023-01-01T08:34:11;14.60;99.90
31074;DHT22;17730;53.552;9.940;2023-01-01T08:36:37;14.60;99.90
31074;DHT22;17730;53.552;9.940;2023-01-01T08:39:05;14.60;99.90
31074;DHT22;17730;53.552;9.940;2023-01-01T08:41:31;14.60;99.90
31074;DHT22;17730;53.552;9.940;2023-01-01T08:43:57;14.60;99.90
31074;DHT22;17730;53.552;9.940;2023-01-01T08:46:23;14.70;99.90
31074;DHT22;17730;53.552;9.940;2023-01-01T08:48:48;14.60;99.90
31074;DHT22;17730;53.552;9.940;2023-01-01T08:51:14;14.60;99.90
31074;DHT22;17730;53.552;9.940;2023-01-01T08:53:40;14.60;99.90
31074;DHT22;17730;53.552;9.940;2023-01-01T08:56:08;14.60;99.90
31074;DHT22;17730;53.552;9.940;2023-01-01T08:58:35;14.60;99.90
31074;DHT22;17730;53.552;9.940;2023-01-01T09:01:01;14.60;99.90
31074;DHT22;17730;53.552;9.940;2023-01-01T09:03:27;14.70;99.90
31074;DHT22;17730;53.552;9.940;2023-01-01T09:05:53;14.70;99.90
31074;DHT22;17730;53.552;9.940;2023-01-01T09:08:19;14.70;99.90
31074;DHT22;17730;53.552;9.940;2023-01-01T09:10:45;14.70;99.90
31074;DHT22;17730;53.552;9.940;2023-01-01T09:13:13;14.70;99.90
31074;DHT22;17730;53.552;9.940;2023-01-01T09:15:39;14.80;99.90
31074;DHT22;17730;53.552;9.940;2023-01-01T09:18:04;14.80;99.90
31074;DHT22;17730;53.552;9.940;2023-01-01T09:20:30;14.80;99.90
31074;DHT22;17730;53.552;9.940;2023-01-01T09:22:56;14.80;99.90
31074;DHT22;17730;53.552;9.940;2023-01-01T09:25:21;14.80;99.90
31074;DHT22;17730;53.552;9.940;2023-01-01T09:27:47;14.70;99.90
31074;DHT22;17730;53.552;9.940;2023-01-01T09:30:13;14.60;99.90
31074;DHT22;17730;53.552;9.940;2023-01-01T09:32:38;14.50;99.90
31074;DHT22;17730;53.552;9.940;2023-01-01T09:35:04;14.50;99.90
31074;DHT22;17730;53.552;9.940;2023-01-01T09:37:30;14.50;99.90
31074;DHT22;17730;53.552;9.940;2023-01-01T09:39:56;14.60;99.90
31074;DHT22;17730;53.552;9.940;2023-01-01T09:45:20;14.70;99.90
31074;DHT22;17730;53.552;9.940;2023-01-01T09:47:58;14.80;99.90
31074;DHT22;17730;53.552;9.940;2023-01-01T09:50:35;14.70;99.90
31074;DHT22;17730;53.552;9.940;2023-01-01T09:53:31;14.60;99.90
31074;DHT22;17730;53.552;9.940;2023-01-01T09:56:00;14.70;99.90
31074;DHT22;17730;53.552;9.940;2023-01-01T09:58:36;14.60;99.90
31074;DHT22;17730;53.552;9.940;2023-01-01T10:03:57;14.60;99.90
31074;DHT22;17730;53.552;9.940;2023-01-01T10:06:31;14.60;99.90
31074;DHT22;17730;53.552;9.940;2023-01-01T10:11:39;14.60;99.90
31074;DHT22;17730;53.552;9.940;2023-01-01T10:14:17;14.60;99.90
31074;DHT22;17730;53.552;9.940;2023-01-01T10:16:48;14.60;99.90
31074;DHT22;17730;53.552;9.940;2023-01-01T10:21:50;14.60;99.90
31074;DHT22;17730;53.552;9.940;2023-01-01T10:26:53;14.60;99.90
31074;DHT22;17730;53.552;9.940;2023-01-01T10:29:40;14.70;99.90
31074;DHT22;17730;53.552;9.940;2023-01-01T10:32:27;14.80;99.90
31074;DHT22;17730;53.552;9.940;2023-01-01T10:34:54;14.90;99.90
31074;DHT22;17730;53.552;9.940;2023-01-01T10:37:19;14.90;99.90
31074;DHT22;17730;53.552;9.940;2023-01-01T10:39:46;14.90;99.90
31074;DHT22;17730;53.552;9.940;2023-01-01T10:42:12;14.90;99.90
31074;DHT22;17730;53.552;9.940;2023-01-01T10:44:39;15.00;99.90
31074;DHT22;17730;53.552;9.940;2023-01-01T10:47:25;15.10;99.90
31074;DHT22;17730;53.552;9.940;2023-01-01T10:49:54;15.60;30.90
31074;DHT22;17730;53.552;9.940;2023-01-01T10:52:28;15.80;99.90
31074;DHT22;17730;53.552;9.940;2023-01-01T10:54:56;16.00;99.90
31074;DHT22;17730;53.552;9.940;2023-01-01T11:02:39;15.80;99.90
31074;DHT22;17730;53.552;9.940;2023-01-01T11:05:19;15.70;99.90
31074;DHT22;17730;53.552;9.940;2023-01-01T11:07:46;15.60;99.90
31074;DHT22;17730;53.552;9.940;2023-01-01T11:10:21;15.70;99.90
31074;DHT22;17730;53.552;9.940;2023-01-01T11:12:47;16.10;99.90
31074;DHT22;17730;53.552;9.940;2023-01-01T11:15:41;16.40;99.90
31074;DHT22;17730;53.552;9.940;2023-01-01T11:18:13;16.70;1.00
31074;DHT22;17730;53.552;9.940;2023-01-01T11:20:40;16.60;99.90
31074;DHT22;17730;53.552;9.940;2023-01-01T11:26:07;16.10;99.90
31074;DHT22;17730;53.552;9.940;2023-01-01T11:29:19;15.90;1.00
31074;DHT22;17730;53.552;9.940;2023-01-01T11:31:46;15.60;18.70
31074;DHT22;17730;53.552;9.940;2023-01-01T11:34:34;15.50;93.20
31074;DHT22;17730;53.552;9.940;2023-01-01T11:37:15;15.60;99.90
31074;DHT22;17730;53.552;9.940;2023-01-01T11:39:43;15.50;91.90
31074;DHT22;17730;53.552;9.940;2023-01-01T11:42:16;15.60;44.80
31074;DHT22;17730;53.552;9.940;2023-01-01T11:44:45;15.60;1.00
31074;DHT22;17730;53.552;9.940;2023-01-01T11:52:38;15.00;99.90
31074;DHT22;17730;53.552;9.940;2023-01-01T11:55:26;14.80;99.90
31074;DHT22;17730;53.552;9.940;2023-01-01T12:00:47;14.60;99.90
31074;DHT22;17730;53.552;9.940;2023-01-01T12:03:34;14.50;99.90
31074;DHT22;17730;53.552;9.940;2023-01-01T12:06:05;14.40;99.90
31074;DHT22;17730;53.552;9.940;2023-01-01T12:08:36;14.50;99.90
31074;DHT22;17730;53.552;9.940;2023-01-01T12:11:28;14.60;99.90
31074;DHT22;17730;53.552;9.940;2023-01-01T12:14:21;14.90;99.90
31074;DHT22;17730;53.552;9.940;2023-01-01T12:16:58;15.30;99.90
31074;DHT22;17730;53.552;9.940;2023-01-01T12:19:42;15.20;99.90
31074;DHT22;17730;53.552;9.940;2023-01-01T12:22:15;15.20;99.90
31074;DHT22;17730;53.552;9.940;2023-01-01T12:24:42;15.10;99.90
31074;DHT22;17730;53.552;9.940;2023-01-01T12:27:27;15.10;99.90
31074;DHT22;17730;53.552;9.940;2023-01-01T12:32:44;15.80;99.90
31074;DHT22;17730;53.552;9.940;2023-01-01T12:38:43;16.60;99.90
31074;DHT22;17730;53.552;9.940;2023-01-01T12:41:31;16.60;99.90
31074;DHT22;17730;53.552;9.940;2023-01-01T12:44:10;16.10;99.90
31074;DHT22;17730;53.552;9.940;2023-01-01T12:47:01;15.80;49.00
31074;DHT22;17730;53.552;9.940;2023-01-01T12:49:39;15.60;99.90
31074;DHT22;17730;53.552;9.940;2023-01-01T12:57:42;15.30;99.90
31074;DHT22;17730;53.552;9.940;2023-01-01T13:00:15;15.60;99.90
31074;DHT22;17730;53.552;9.940;2023-01-01T13:03:02;15.90;99.90
31074;DHT22;17730;53.552;9.940;2023-01-01T13:05:42;15.90;99.90
31074;DHT22;17730;53.552;9.940;2023-01-01T13:08:08;15.80;99.90
31074;DHT22;17730;53.552;9.940;2023-01-01T13:10:35;15.50;99.90
31074;DHT22;17730;53.552;9.940;2023-01-01T13:13:02;15.20;1.00
31074;DHT22;17730;53.552;9.940;2023-01-01T13:20:30;14.60;99.90
31074;DHT22;17730;53.552;9.940;2023-01-01T13:22:55;14.50;99.90
31074;DHT22;17730;53.552;9.940;2023-01-01T13:25:22;14.40;99.90
31074;DHT22;17730;53.552;9.940;2023-01-01T13:33:28;14.10;99.90
31074;DHT22;17730;53.552;9.940;2023-01-01T13:38:52;14.10;99.90
31074;DHT22;17730;53.552;9.940;2023-01-01T13:49:17;13.70;99.90
31074;DHT22;17730;53.552;9.940;2023-01-01T13:54:50;13.60;99.90
31074;DHT22;17730;53.552;9.940;2023-01-01T13:57:25;13.60;99.90
31074;DHT22;17730;53.552;9.940;2023-01-01T14:00:20;13.50;99.90
31074;DHT22;17730;53.552;9.940;2023-01-01T14:02:59;13.40;99.90
31074;DHT22;17730;53.552;9.940;2023-01-01T14:07:56;13.20;99.90
31074;DHT22;17730;53.552;9.940;2023-01-01T14:10:30;13.10;1.00
31074;DHT22;17730;53.552;9.940;2023-01-01T14:15:32;13.10;1.00
31074;DHT22;17730;53.552;9.940;2023-01-01T14:18:00;13.10;1.00
31074;DHT22;17730;53.552;9.940;2023-01-01T14:20:35;13.00;1.00
31074;DHT22;17730;53.552;9.940;2023-01-01T14:23:09;13.10;1.00
31074;DHT22;17730;53.552;9.940;2023-01-01T14:25:35;13.00;1.00
31074;DHT22;17730;53.552;9.940;2023-01-01T14:28:01;13.00;1.00
31074;DHT22;17730;53.552;9.940;2023-01-01T14:30:30;13.00;1.00
31074;DHT22;17730;53.552;9.940;2023-01-01T14:33:01;12.90;1.00
31074;DHT22;17730;53.552;9.940;2023-01-01T14:35:28;12.90;1.00
31074;DHT22;17730;53.552;9.940;2023-01-01T14:37:54;12.90;1.00
31074;DHT22;17730;53.552;9.940;2023-01-01T14:40:25;12.80;1.00
31074;DHT22;17730;53.552;9.940;2023-01-01T14:43:03;12.80;1.00
31074;DHT22;17730;53.552;9.940;2023-01-01T14:45:31;12.80;1.00
31074;DHT22;17730;53.552;9.940;2023-01-01T14:47:58;12.70;1.00
31074;DHT22;17730;53.552;9.940;2023-01-01T14:50:30;12.60;1.00
31074;DHT22;17730;53.552;9.940;2023-01-01T14:53:07;12.60;1.00
31074;DHT22;17730;53.552;9.940;2023-01-01T14:55:41;12.50;1.00
31074;DHT22;17730;53.552;9.940;2023-01-01T14:58:22;12.40;3.10
31074;DHT22;17730;53.552;9.940;2023-01-01T15:00:49;12.40;14.90
31074;DHT22;17730;53.552;9.940;2023-01-01T15:03:20;12.40;27.10
31074;DHT22;17730;53.552;9.940;2023-01-01T15:06:15;12.30;28.50
31074;DHT22;17730;53.552;9.940;2023-01-01T15:08:41;12.30;36.10
31074;DHT22;17730;53.552;9.940;2023-01-01T15:11:12;12.30;39.00
31074;DHT22;17730;53.552;9.940;2023-01-01T15:13:38;12.20;54.30
31074;DHT22;17730;53.552;9.940;2023-01-01T15:16:17;12.10;65.70
31074;DHT22;17730;53.552;9.940;2023-01-01T15:18:44;12.10;74.70
31074;DHT22;17730;53.552;9.940;2023-01-01T15:21:12;12.00;91.70
31074;DHT22;17730;53.552;9.940;2023-01-01T15:23:45;12.00;93.00
31074;DHT22;17730;53.552;9.940;2023-01-01T15:26:28;11.90;99.90
31074;DHT22;17730;53.552;9.940;2023-01-01T15:28:56;11.90;99.90
31074;DHT22;17730;53.552;9.940;2023-01-01T15:31:22;11.90;99.90
31074;DHT22;17730;53.552;9.940;2023-01-01T15:33:57;11.90;99.90
31074;DHT22;17730;53.552;9.940;2023-01-01T15:36:23;11.80;99.90
31074;DHT22;17730;53.552;9.940;2023-01-01T15:38:49;11.80;99.90
31074;DHT22;17730;53.552;9.940;2023-01-01T15:41:42;11.80;99.90
31074;DHT22;17730;53.552;9.940;2023-01-01T15:44:31;11.80;99.90
31074;DHT22;17730;53.552;9.940;2023-01-01T15:47:11;11.80;99.90
31074;DHT22;17730;53.552;9.940;2023-01-01T15:49:38;11.80;99.90
31074;DHT22;17730;53.552;9.940;2023-01-01T15:52:05;11.80;99.90
31074;DHT22;17730;53.552;9.940;2023-01-01T15:54:38;11.80;99.90
31074;DHT22;17730;53.552;9.940;2023-01-01T15:57:18;11.80;99.90
31074;DHT22;17730;53.552;9.940;2023-01-01T15:59:44;11.80;99.90
31074;DHT22;17730;53.552;9.940;2023-01-01T16:02:19;11.80;99.90
31074;DHT22;17730;53.552;9.940;2023-01-01T16:04:47;11.90;99.90
31074;DHT22;17730;53.552;9.940;2023-01-01T16:07:16;11.90;99.90
31074;DHT22;17730;53.552;9.940;2023-01-01T16:09:45;11.90;99.90
31074;DHT22;17730;53.552;9.940;2023-01-01T16:12:11;11.90;99.90
31074;DHT22;17730;53.552;9.940;2023-01-01T16:14:37;11.90;99.90
31074;DHT22;17730;53.552;9.940;2023-01-01T16:17:02;12.00;99.90
31074;DHT22;17730;53.552;9.940;2023-01-01T16:19:29;12.10;99.90
31074;DHT22;17730;53.552;9.940;2023-01-01T16:21:55;12.10;99.90
31074;DHT22;17730;53.552;9.940;2023-01-01T16:24:21;12.10;99.90
31074;DHT22;17730;53.552;9.940;2023-01-01T16:26:47;12.10;99.90
31074;DHT22;17730;53.552;9.940;2023-01-01T16:29:13;12.10;99.90
31074;DHT22;17730;53.552;9.940;2023-01-01T16:31:39;12.10;99.90
31074;DHT22;17730;53.552;9.940;2023-01-01T16:34:05;12.10;99.90
31074;DHT22;17730;53.552;9.940;2023-01-01T16:36:31;12.00;99.90
31074;DHT22;17730;53.552;9.940;2023-01-01T16:38:57;12.00;99.90
31074;DHT22;17730;53.552;9.940;2023-01-01T16:41:25;12.10;99.90
31074;DHT22;17730;53.552;9.940;2023-01-01T16:43:50;12.10;99.90
31074;DHT22;17730;53.552;9.940;2023-01-01T16:46:16;12.10;99.90
31074;DHT22;17730;53.552;9.940;2023-01-01T16:48:42;12.10;99.90
31074;DHT22;17730;53.552;9.940;2023-01-01T16:51:19;12.10;99.90
31074;DHT22;17730;53.552;9.940;2023-01-01T16:53:47;12.10;99.90
31074;DHT22;17730;53.552;9.940;2023-01-01T16:56:13;12.10;99.90
31074;DHT22;17730;53.552;9.940;2023-01-01T16:58:39;12.00;99.90
31074;DHT22;17730;53.552;9.940;2023-01-01T17:01:05;12.00;99.90
31074;DHT22;17730;53.552;9.940;2023-01-01T17:03:30;12.10;99.90
31074;DHT22;17730;53.552;9.940;2023-01-01T17:05:56;12.00;99.90
31074;DHT22;17730;53.552;9.940;2023-01-01T17:08:22;12.00;99.90
31074;DHT22;17730;53.552;9.940;2023-01-01T17:10:47;12.00;99.90
31074;DHT22;17730;53.552;9.940;2023-01-01T17:13:13;12.00;99.90
31074;DHT22;17730;53.552;9.940;2023-01-01T17:15:38;12.00;99.90
31074;DHT22;17730;53.552;9.940;2023-01-01T17:18:04;12.00;99.90
31074;DHT22;17730;53.552;9.940;2023-01-01T17:20:30;12.00;99.90
31074;DHT22;17730;53.552;9.940;2023-01-01T17:22:55;11.90;99.90
31074;DHT22;17730;53.552;9.940;2023-01-01T17:25:21;11.90;99.90
31074;DHT22;17730;53.552;9.940;2023-01-01T17:27:47;11.90;99.90
31074;DHT22;17730;53.552;9.940;2023-01-01T17:30:13;11.90;99.90
31074;DHT22;17730;53.552;9.940;2023-01-01T17:32:39;12.00;99.90
31074;DHT22;17730;53.552;9.940;2023-01-01T17:35:05;11.90;99.90
31074;DHT22;17730;53.552;9.940;2023-01-01T17:37:32;12.00;99.90